sensor_id;sensor_type;location;lat;lon;timestamp;P1;durP1;ratioP1;P2;durP2;ratioP2
62353;SDS011;48391;49.184;2.418;2022-08-16T05:12:43;14.20;;;12.73;;
62353;SDS011;48391;49.184;2.418;2022-08-16T05:19:11;12.50;;;11.20;;
62353;SDS011;48391;49.184;2.418;2022-08-16T05:21:37;13.63;;;12.23;;
62353;SDS011;48391;49.184;2.418;2022-08-16T05:24:04;11.48;;;10.43;;
62353;SDS011;48391;49.184;2.418;2022-08-16T05:26:30;14.50;;;11.23;;
62353;SDS011;48391;49.184;2.418;2022-08-16T05:28:56;11.85;;;10.40;;
62353;SDS011;48391;49.184;2.418;2022-08-16T05:31:24;11.68;;;10.48;;
62353;SDS011;48391;49.184;2.418;2022-08-16T05:33:50;11.07;;;10.10;;
62353;SDS011;48391;49.184;2.418;2022-08-16T05:36:16;10.85;;;9.80;;
62353;SDS011;48391;49.184;2.418;2022-08-16T05:38:42;12.27;;;11.00;;
62353;SDS011;48391;49.184;2.418;2022-08-16T05:41:08;11.07;;;10.05;;
62353;SDS011;48391;49.184;2.418;2022-08-16T05:43:34;12.18;;;11.07;;
62353;SDS011;48391;49.184;2.418;2022-08-16T05:46:00;13.95;;;11.00;;
62353;SDS011;48391;49.184;2.418;2022-08-16T05:48:26;9.75;;;8.85;;
62353;SDS011;48391;49.184;2.418;2022-08-16T05:50:52;12.65;;;10.65;;
62353;SDS011;48391;49.184;2.418;2022-08-16T05:53:18;10.00;;;8.77;;
62353;SDS011;48391;49.184;2.418;2022-08-16T05:55:44;10.05;;;9.05;;
62353;SDS011;48391;49.184;2.418;2022-08-16T05:58:10;9.15;;;8.27;;
62353;SDS011;48391;49.184;2.418;2022-08-16T06:00:36;11.23;;;10.07;;
62353;SDS011;48391;49.184;2.418;2022-08-16T06:03:02;10.65;;;9.57;;
62353;SDS011;48391;49.184;2.418;2022-08-16T06:05:29;14.73;;;9.80;;
62353;SDS011;48391;49.184;2.418;2022-08-16T06:07:55;46.75;;;11.05;;
62353;SDS011;48391;49.184;2.418;2022-08-16T06:10:21;17.52;;;11.10;;
62353;SDS011;48391;49.184;2.418;2022-08-16T06:12:47;10.30;;;9.40;;
62353;SDS011;48391;49.184;2.418;2022-08-16T06:15:14;10.68;;;9.55;;
62353;SDS011;48391;49.184;2.418;2022-08-16T06:17:41;17.83;;;9.70;;
62353;SDS011;48391;49.184;2.418;2022-08-16T06:20:07;11.43;;;9.65;;
62353;SDS011;48391;49.184;2.418;2022-08-16T06:22:34;11.18;;;10.05;;
62353;SDS011;48391;49.184;2.418;2022-08-16T06:25:01;14.50;;;9.90;;
62353;SDS011;48391;49.184;2.418;2022-08-16T06:27:27;11.02;;;10.13;;
62353;SDS011;48391;49.184;2.418;2022-08-16T06:29:53;13.82;;;12.30;;
62353;SDS011;48391;49.184;2.418;2022-08-16T06:32:19;11.25;;;10.23;;
62353;SDS011;48391;49.184;2.418;2022-08-16T06:34:45;12.05;;;10.90;;
62353;SDS011;48391;49.184;2.418;2022-08-16T06:37:11;12.65;;;11.45;;
62353;SDS011;48391;49.184;2.418;2022-08-16T06:39:37;12.60;;;11.20;;
62353;SDS011;48391;49.184;2.418;2022-08-16T06:42:03;13.55;;;12.25;;
62353;SDS011;48391;49.184;2.418;2022-08-16T06:44:29;13.18;;;11.52;;
62353;SDS011;48391;49.184;2.418;2022-08-16T06:46:55;13.75;;;12.13;;
62353;SDS011;48391;49.184;2.418;2022-08-16T06:49:21;13.15;;;11.80;;
62353;SDS011;48391;49.184;2.418;2022-08-16T06:51:47;16.25;;;12.15;;
62353;SDS011;48391;49.184;2.418;2022-08-16T06:54:14;13.48;;;12.07;;
62353;SDS011;48391;49.184;2.418;2022-08-16T06:56:40;15.05;;;13.48;;
62353;SDS011;48391;49.184;2.418;2022-08-16T06:59:06;15.63;;;12.38;;
62353;SDS011;48391;49.184;2.418;2022-08-16T07:01:32;13.02;;;11.85;;
62353;SDS011;48391;49.184;2.418;2022-08-16T07:03:58;14.60;;;13.15;;
62353;SDS011;48391;49.184;2.418;2022-08-16T07:06:24;14.27;;;12.95;;
62353;SDS011;48391;49.184;2.418;2022-08-16T07:08:50;13.13;;;11.82;;
62353;SDS011;48391;49.184;2.418;2022-08-16T07:11:17;13.07;;;11.88;;
62353;SDS011;48391;49.184;2.418;2022-08-16T07:13:45;14.82;;;13.30;;
62353;SDS011;48391;49.184;2.418;2022-08-16T07:16:12;14.65;;;13.07;;
62353;SDS011;48391;49.184;2.418;2022-08-16T07:18:40;14.82;;;13.25;;
62353;SDS011;48391;49.184;2.418;2022-08-16T07:21:08;13.48;;;12.18;;
62353;SDS011;48391;49.184;2.418;2022-08-16T07:23:34;13.73;;;12.38;;
62353;SDS011;48391;49.184;2.418;2022-08-16T07:26:02;15.18;;;12.65;;
62353;SDS011;48391;49.184;2.418;2022-08-16T07:28:29;14.45;;;11.82;;
62353;SDS011;48391;49.184;2.418;2022-08-16T07:30:55;12.77;;;11.48;;
62353;SDS011;48391;49.184;2.418;2022-08-16T07:33:23;14.77;;;12.82;;
62353;SDS011;48391;49.184;2.418;2022-08-16T07:35:50;13.70;;;11.68;;
62353;SDS011;48391;49.184;2.418;2022-08-16T07:38:16;13.48;;;12.13;;
62353;SDS011;48391;49.184;2.418;2022-08-16T07:40:42;13.55;;;12.18;;
62353;SDS011;48391;49.184;2.418;2022-08-16T07:43:08;12.68;;;11.32;;
62353;SDS011;48391;49.184;2.418;2022-08-16T07:45:34;13.90;;;12.35;;
62353;SDS011;48391;49.184;2.418;2022-08-16T07:48:00;12.77;;;11.57;;
62353;SDS011;48391;49.184;2.418;2022-08-16T07:50:26;12.40;;;11.20;;
62353;SDS011;48391;49.184;2.418;2022-08-16T07:52:52;14.57;;;11.00;;
62353;SDS011;48391;49.184;2.418;2022-08-16T07:55:19;12.70;;;11.02;;
62353;SDS011;48391;49.184;2.418;2022-08-16T07:57:45;11.80;;;10.57;;
62353;SDS011;48391;49.184;2.418;2022-08-16T08:00:11;11.55;;;10.55;;
62353;SDS011;48391;49.184;2.418;2022-08-16T08:02:37;10.98;;;9.90;;
62353;SDS011;48391;49.184;2.418;2022-08-16T08:05:04;12.30;;;11.15;;
62353;SDS011;48391;49.184;2.418;2022-08-16T08:07:30;18.40;;;14.00;;
62353;SDS011;48391;49.184;2.418;2022-08-16T08:09:56;21.42;;;19.17;;
62353;SDS011;48391;49.184;2.418;2022-08-16T08:12:23;20.13;;;18.08;;
62353;SDS011;48391;49.184;2.418;2022-08-16T08:14:49;19.25;;;16.88;;
62353;SDS011;48391;49.184;2.418;2022-08-16T08:17:16;14.68;;;13.10;;
62353;SDS011;48391;49.184;2.418;2022-08-16T08:19:42;13.48;;;11.77;;
62353;SDS011;48391;49.184;2.418;2022-08-16T08:22:09;10.50;;;9.50;;
62353;SDS011;48391;49.184;2.418;2022-08-16T08:24:35;12.52;;;10.15;;
62353;SDS011;48391;49.184;2.418;2022-08-16T08:27:04;12.10;;;10.98;;
62353;SDS011;48391;49.184;2.418;2022-08-16T08:29:32;11.38;;;9.52;;
62353;SDS011;48391;49.184;2.418;2022-08-16T08:31:58;11.70;;;9.77;;
62353;SDS011;48391;49.184;2.418;2022-08-16T08:34:25;10.60;;;9.57;;
62353;SDS011;48391;49.184;2.418;2022-08-16T08:36:51;11.00;;;9.05;;
62353;SDS011;48391;49.184;2.418;2022-08-16T08:39:18;8.60;;;7.85;;
62353;SDS011;48391;49.184;2.418;2022-08-16T08:41:44;8.55;;;6.70;;
62353;SDS011;48391;49.184;2.418;2022-08-16T08:44:11;9.95;;;7.18;;
62353;SDS011;48391;49.184;2.418;2022-08-16T08:46:38;17.38;;;8.07;;
62353;SDS011;48391;49.184;2.418;2022-08-16T08:49:04;17.17;;;8.65;;
62353;SDS011;48391;49.184;2.418;2022-08-16T08:51:32;11.02;;;7.72;;
62353;SDS011;48391;49.184;2.418;2022-08-16T08:53:59;8.00;;;7.30;;
62353;SDS011;48391;49.184;2.418;2022-08-16T08:56:25;7.78;;;6.95;;
62353;SDS011;48391;49.184;2.418;2022-08-16T08:58:56;11.38;;;7.35;;
62353;SDS011;48391;49.184;2.418;2022-08-16T09:01:24;8.63;;;7.43;;
62353;SDS011;48391;49.184;2.418;2022-08-16T09:03:52;9.50;;;7.35;;
62353;SDS011;48391;49.184;2.418;2022-08-16T09:06:18;8.20;;;7.40;;
62353;SDS011;48391;49.184;2.418;2022-08-16T09:08:44;16.50;;;8.63;;
62353;SDS011;48391;49.184;2.418;2022-08-16T09:11:10;16.67;;;8.10;;
62353;SDS011;48391;49.184;2.418;2022-08-16T09:13:36;13.48;;;7.55;;
62353;SDS011;48391;49.184;2.418;2022-08-16T09:16:02;12.90;;;7.97;;
62353;SDS011;48391;49.184;2.418;2022-08-16T09:18:29;10.52;;;7.85;;
62353;SDS011;48391;49.184;2.418;2022-08-16T09:20:55;8.52;;;7.53;;
62353;SDS011;48391;49.184;2.418;2022-08-16T09:23:23;7.65;;;6.90;;
62353;SDS011;48391;49.184;2.418;2022-08-16T09:25:50;13.13;;;7.53;;
62353;SDS011;48391;49.184;2.418;2022-08-16T09:28:16;9.30;;;7.30;;
62353;SDS011;48391;49.184;2.418;2022-08-16T09:30:42;11.35;;;7.07;;
62353;SDS011;48391;49.184;2.418;2022-08-16T09:33:08;9.13;;;7.15;;
62353;SDS011;48391;49.184;2.418;2022-08-16T09:35:35;11.27;;;7.38;;
62353;SDS011;48391;49.184;2.418;2022-08-16T09:38:02;9.18;;;6.22;;
62353;SDS011;48391;49.184;2.418;2022-08-16T09:40:28;10.85;;;6.03;;
62353;SDS011;48391;49.184;2.418;2022-08-16T09:42:55;6.55;;;5.75;;
62353;SDS011;48391;49.184;2.418;2022-08-16T09:45:22;9.70;;;4.70;;
62353;SDS011;48391;49.184;2.418;2022-08-16T09:47:49;6.65;;;5.90;;
62353;SDS011;48391;49.184;2.418;2022-08-16T09:50:19;5.15;;;4.35;;
62353;SDS011;48391;49.184;2.418;2022-08-16T09:52:45;9.05;;;5.70;;
62353;SDS011;48391;49.184;2.418;2022-08-16T09:55:11;6.55;;;4.93;;
62353;SDS011;48391;49.184;2.418;2022-08-16T09:57:39;7.93;;;5.03;;
62353;SDS011;48391;49.184;2.418;2022-08-16T10:00:07;9.18;;;4.18;;
62353;SDS011;48391;49.184;2.418;2022-08-16T10:02:33;15.63;;;5.38;;
62353;SDS011;48391;49.184;2.418;2022-08-16T10:05:00;8.07;;;4.88;;
62353;SDS011;48391;49.184;2.418;2022-08-16T10:07:27;9.38;;;5.13;;
62353;SDS011;48391;49.184;2.418;2022-08-16T10:09:53;11.82;;;4.97;;
62353;SDS011;48391;49.184;2.418;2022-08-16T10:12:19;10.43;;;4.28;;
62353;SDS011;48391;49.184;2.418;2022-08-16T10:15:04;8.25;;;4.85;;
62353;SDS011;48391;49.184;2.418;2022-08-16T10:17:32;6.88;;;3.97;;
62353;SDS011;48391;49.184;2.418;2022-08-16T10:19:59;8.68;;;5.60;;
62353;SDS011;48391;49.184;2.418;2022-08-16T10:22:25;7.53;;;5.07;;
62353;SDS011;48391;49.184;2.418;2022-08-16T10:24:51;11.07;;;4.38;;
62353;SDS011;48391;49.184;2.418;2022-08-16T10:27:17;4.28;;;3.88;;
62353;SDS011;48391;49.184;2.418;2022-08-16T10:29:45;7.13;;;4.35;;
62353;SDS011;48391;49.184;2.418;2022-08-16T10:32:11;6.25;;;3.97;;
62353;SDS011;48391;49.184;2.418;2022-08-16T10:34:37;6.75;;;3.95;;
62353;SDS011;48391;49.184;2.418;2022-08-16T10:37:03;5.38;;;4.40;;
62353;SDS011;48391;49.184;2.418;2022-08-16T10:39:29;10.23;;;5.00;;
62353;SDS011;48391;49.184;2.418;2022-08-16T10:41:56;7.50;;;5.10;;
62353;SDS011;48391;49.184;2.418;2022-08-16T10:44:22;7.68;;;4.35;;
62353;SDS011;48391;49.184;2.418;2022-08-16T10:46:48;10.50;;;5.57;;
62353;SDS011;48391;49.184;2.418;2022-08-16T10:49:14;4.80;;;4.18;;
62353;SDS011;48391;49.184;2.418;2022-08-16T10:51:40;7.10;;;5.32;;
62353;SDS011;48391;49.184;2.418;2022-08-16T10:54:07;7.30;;;4.47;;
62353;SDS011;48391;49.184;2.418;2022-08-16T10:56:33;4.88;;;3.80;;
62353;SDS011;48391;49.184;2.418;2022-08-16T10:58:59;5.57;;;3.72;;
62353;SDS011;48391;49.184;2.418;2022-08-16T11:01:25;7.22;;;3.80;;
62353;SDS011;48391;49.184;2.418;2022-08-16T11:03:52;5.30;;;3.97;;
62353;SDS011;48391;49.184;2.418;2022-08-16T11:06:18;4.32;;;3.78;;
62353;SDS011;48391;49.184;2.418;2022-08-16T11:08:44;6.10;;;4.15;;
62353;SDS011;48391;49.184;2.418;2022-08-16T11:11:10;6.15;;;3.53;;
62353;SDS011;48391;49.184;2.418;2022-08-16T11:13:38;3.53;;;3.22;;
62353;SDS011;48391;49.184;2.418;2022-08-16T11:16:05;7.00;;;3.33;;
62353;SDS011;48391;49.184;2.418;2022-08-16T11:18:31;6.97;;;4.15;;
62353;SDS011;48391;49.184;2.418;2022-08-16T11:20:58;3.15;;;2.85;;
62353;SDS011;48391;49.184;2.418;2022-08-16T11:23:25;3.38;;;3.03;;
62353;SDS011;48391;49.184;2.418;2022-08-16T11:25:52;7.18;;;3.60;;
62353;SDS011;48391;49.184;2.418;2022-08-16T11:28:18;7.72;;;4.22;;
62353;SDS011;48391;49.184;2.418;2022-08-16T11:30:45;3.30;;;2.97;;
62353;SDS011;48391;49.184;2.418;2022-08-16T11:33:12;3.63;;;3.30;;
62353;SDS011;48391;49.184;2.418;2022-08-16T11:35:38;7.35;;;3.60;;
62353;SDS011;48391;49.184;2.418;2022-08-16T11:38:05;2.75;;;2.58;;
62353;SDS011;48391;49.184;2.418;2022-08-16T11:40:50;5.47;;;3.17;;
62353;SDS011;48391;49.184;2.418;2022-08-16T11:43:17;6.47;;;3.42;;
62353;SDS011;48391;49.184;2.418;2022-08-16T11:45:44;3.30;;;3.00;;
62353;SDS011;48391;49.184;2.418;2022-08-16T11:48:11;4.05;;;3.20;;
62353;SDS011;48391;49.184;2.418;2022-08-16T11:50:38;6.32;;;3.85;;
62353;SDS011;48391;49.184;2.418;2022-08-16T11:53:04;4.05;;;3.65;;
62353;SDS011;48391;49.184;2.418;2022-08-16T11:55:32;5.85;;;3.85;;
62353;SDS011;48391;49.184;2.418;2022-08-16T11:57:59;9.10;;;4.47;;
62353;SDS011;48391;49.184;2.418;2022-08-16T12:00:26;2.90;;;2.70;;
62353;SDS011;48391;49.184;2.418;2022-08-16T12:02:52;4.13;;;3.35;;
62353;SDS011;48391;49.184;2.418;2022-08-16T12:05:19;6.38;;;4.20;;
62353;SDS011;48391;49.184;2.418;2022-08-16T12:07:45;4.75;;;3.38;;
62353;SDS011;48391;49.184;2.418;2022-08-16T12:10:14;3.63;;;3.22;;
62353;SDS011;48391;49.184;2.418;2022-08-16T12:12:41;6.43;;;3.30;;
62353;SDS011;48391;49.184;2.418;2022-08-16T12:15:07;5.15;;;3.00;;
62353;SDS011;48391;49.184;2.418;2022-08-16T12:17:34;8.35;;;3.47;;
62353;SDS011;48391;49.184;2.418;2022-08-16T12:20:00;7.85;;;4.25;;
62353;SDS011;48391;49.184;2.418;2022-08-16T12:22:27;5.57;;;3.40;;
62353;SDS011;48391;49.184;2.418;2022-08-16T12:24:53;5.63;;;3.50;;
62353;SDS011;48391;49.184;2.418;2022-08-16T12:27:20;3.50;;;3.05;;
62353;SDS011;48391;49.184;2.418;2022-08-16T12:29:47;5.32;;;3.28;;
62353;SDS011;48391;49.184;2.418;2022-08-16T12:32:15;4.65;;;3.33;;
62353;SDS011;48391;49.184;2.418;2022-08-16T12:34:41;4.88;;;3.80;;
62353;SDS011;48391;49.184;2.418;2022-08-16T12:37:07;5.35;;;3.38;;
62353;SDS011;48391;49.184;2.418;2022-08-16T12:39:33;4.50;;;3.03;;
62353;SDS011;48391;49.184;2.418;2022-08-16T12:41:59;8.48;;;4.10;;
62353;SDS011;48391;49.184;2.418;2022-08-16T12:44:25;4.18;;;3.17;;
62353;SDS011;48391;49.184;2.418;2022-08-16T12:46:51;7.32;;;3.53;;
62353;SDS011;48391;49.184;2.418;2022-08-16T12:49:36;6.25;;;3.88;;
62353;SDS011;48391;49.184;2.418;2022-08-16T12:52:05;4.83;;;3.13;;
62353;SDS011;48391;49.184;2.418;2022-08-16T12:54:31;3.75;;;3.13;;
62353;SDS011;48391;49.184;2.418;2022-08-16T12:56:57;3.75;;;3.45;;
62353;SDS011;48391;49.184;2.418;2022-08-16T12:59:23;7.30;;;4.13;;
62353;SDS011;48391;49.184;2.418;2022-08-16T13:01:49;4.40;;;3.55;;
62353;SDS011;48391;49.184;2.418;2022-08-16T13:04:16;9.18;;;3.72;;
62353;SDS011;48391;49.184;2.418;2022-08-16T13:06:42;8.38;;;3.75;;
62353;SDS011;48391;49.184;2.418;2022-08-16T13:09:08;7.25;;;3.10;;
62353;SDS011;48391;49.184;2.418;2022-08-16T13:12:02;6.53;;;3.97;;
62353;SDS011;48391;49.184;2.418;2022-08-16T13:14:36;4.90;;;4.00;;
62353;SDS011;48391;49.184;2.418;2022-08-16T13:17:03;8.15;;;4.30;;
62353;SDS011;48391;49.184;2.418;2022-08-16T13:19:30;4.82;;;3.22;;
62353;SDS011;48391;49.184;2.418;2022-08-16T13:21:56;4.15;;;3.75;;
62353;SDS011;48391;49.184;2.418;2022-08-16T13:24:22;3.33;;;3.03;;
62353;SDS011;48391;49.184;2.418;2022-08-16T13:26:48;3.95;;;3.22;;
62353;SDS011;48391;49.184;2.418;2022-08-16T13:29:14;4.70;;;3.78;;
62353;SDS011;48391;49.184;2.418;2022-08-16T13:31:40;5.20;;;3.67;;
62353;SDS011;48391;49.184;2.418;2022-08-16T13:34:07;7.90;;;3.42;;
62353;SDS011;48391;49.184;2.418;2022-08-16T13:36:33;5.47;;;3.67;;
62353;SDS011;48391;49.184;2.418;2022-08-16T13:38:59;6.60;;;4.10;;
62353;SDS011;48391;49.184;2.418;2022-08-16T13:41:27;4.97;;;3.50;;
62353;SDS011;48391;49.184;2.418;2022-08-16T13:43:54;3.97;;;3.45;;
62353;SDS011;48391;49.184;2.418;2022-08-16T13:46:20;3.72;;;3.05;;
62353;SDS011;48391;49.184;2.418;2022-08-16T13:48:46;6.70;;;3.70;;
62353;SDS011;48391;49.184;2.418;2022-08-16T13:51:13;4.18;;;3.83;;
62353;SDS011;48391;49.184;2.418;2022-08-16T13:53:39;3.78;;;3.47;;
62353;SDS011;48391;49.184;2.418;2022-08-16T13:56:05;5.47;;;3.00;;
62353;SDS011;48391;49.184;2.418;2022-08-16T13:58:31;6.82;;;3.53;;
62353;SDS011;48391;49.184;2.418;2022-08-16T14:00:58;3.35;;;3.05;;
62353;SDS011;48391;49.184;2.418;2022-08-16T14:03:25;5.47;;;3.33;;
62353;SDS011;48391;49.184;2.418;2022-08-16T14:05:51;6.43;;;3.90;;
62353;SDS011;48391;49.184;2.418;2022-08-16T14:08:17;7.60;;;4.38;;
62353;SDS011;48391;49.184;2.418;2022-08-16T14:10:43;6.10;;;3.95;;
62353;SDS011;48391;49.184;2.418;2022-08-16T14:13:10;3.75;;;3.42;;
62353;SDS011;48391;49.184;2.418;2022-08-16T14:15:36;5.40;;;3.35;;
62353;SDS011;48391;49.184;2.418;2022-08-16T14:18:03;5.97;;;3.28;;
62353;SDS011;48391;49.184;2.418;2022-08-16T14:20:29;7.45;;;3.30;;
62353;SDS011;48391;49.184;2.418;2022-08-16T14:22:55;7.68;;;4.35;;
62353;SDS011;48391;49.184;2.418;2022-08-16T14:25:21;4.85;;;4.43;;
62353;SDS011;48391;49.184;2.418;2022-08-16T14:27:47;7.10;;;3.72;;
62353;SDS011;48391;49.184;2.418;2022-08-16T14:30:14;5.18;;;3.90;;
62353;SDS011;48391;49.184;2.418;2022-08-16T14:32:41;6.45;;;3.40;;
62353;SDS011;48391;49.184;2.418;2022-08-16T14:35:08;4.65;;;3.42;;
62353;SDS011;48391;49.184;2.418;2022-08-16T14:37:35;7.50;;;4.57;;
62353;SDS011;48391;49.184;2.418;2022-08-16T14:40:04;23.13;;;6.07;;
62353;SDS011;48391;49.184;2.418;2022-08-16T14:42:31;9.75;;;3.53;;
62353;SDS011;48391;49.184;2.418;2022-08-16T14:44:58;3.65;;;3.22;;
62353;SDS011;48391;49.184;2.418;2022-08-16T14:47:24;4.72;;;3.58;;
62353;SDS011;48391;49.184;2.418;2022-08-16T14:49:50;9.82;;;3.83;;
62353;SDS011;48391;49.184;2.418;2022-08-16T14:52:18;4.47;;;3.47;;
62353;SDS011;48391;49.184;2.418;2022-08-16T14:54:45;5.25;;;3.55;;
62353;SDS011;48391;49.184;2.418;2022-08-16T14:57:11;4.40;;;3.83;;
62353;SDS011;48391;49.184;2.418;2022-08-16T14:59:38;5.82;;;3.83;;
62353;SDS011;48391;49.184;2.418;2022-08-16T15:02:06;7.68;;;3.97;;
62353;SDS011;48391;49.184;2.418;2022-08-16T15:04:35;5.18;;;3.67;;
62353;SDS011;48391;49.184;2.418;2022-08-16T15:07:01;3.85;;;3.45;;
62353;SDS011;48391;49.184;2.418;2022-08-16T15:09:27;5.35;;;3.58;;
62353;SDS011;48391;49.184;2.418;2022-08-16T15:11:53;4.70;;;3.00;;
62353;SDS011;48391;49.184;2.418;2022-08-16T15:14:19;5.05;;;3.65;;
62353;SDS011;48391;49.184;2.418;2022-08-16T15:16:45;7.30;;;3.70;;
62353;SDS011;48391;49.184;2.418;2022-08-16T15:19:11;4.57;;;3.65;;
62353;SDS011;48391;49.184;2.418;2022-08-16T15:21:37;5.20;;;3.20;;
62353;SDS011;48391;49.184;2.418;2022-08-16T15:24:03;5.13;;;3.45;;
62353;SDS011;48391;49.184;2.418;2022-08-16T15:26:29;3.55;;;2.78;;
62353;SDS011;48391;49.184;2.418;2022-08-16T15:28:55;6.38;;;3.72;;
62353;SDS011;48391;49.184;2.418;2022-08-16T15:31:24;5.32;;;4.13;;
62353;SDS011;48391;49.184;2.418;2022-08-16T15:33:51;7.32;;;4.07;;
62353;SDS011;48391;49.184;2.418;2022-08-16T15:36:18;3.17;;;2.50;;
62353;SDS011;48391;49.184;2.418;2022-08-16T15:38:46;7.78;;;3.55;;
62353;SDS011;48391;49.184;2.418;2022-08-16T15:43:57;6.03;;;3.10;;
62353;SDS011;48391;49.184;2.418;2022-08-16T15:46:23;3.58;;;3.22;;
62353;SDS011;48391;49.184;2.418;2022-08-16T15:48:49;5.43;;;3.28;;
62353;SDS011;48391;49.184;2.418;2022-08-16T15:51:15;5.38;;;3.28;;
62353;SDS011;48391;49.184;2.418;2022-08-16T15:53:41;6.03;;;3.05;;
62353;SDS011;48391;49.184;2.418;2022-08-16T15:56:07;5.30;;;3.40;;
62353;SDS011;48391;49.184;2.418;2022-08-16T15:58:33;3.42;;;3.13;;
62353;SDS011;48391;49.184;2.418;2022-08-16T16:00:59;2.60;;;2.40;;
62353;SDS011;48391;49.184;2.418;2022-08-16T16:03:26;3.80;;;2.83;;
62353;SDS011;48391;49.184;2.418;2022-08-16T16:05:54;3.80;;;3.03;;
62353;SDS011;48391;49.184;2.418;2022-08-16T16:08:23;6.30;;;2.65;;
62353;SDS011;48391;49.184;2.418;2022-08-16T16:10:50;3.45;;;3.13;;
62353;SDS011;48391;49.184;2.418;2022-08-16T16:13:17;3.78;;;3.42;;
62353;SDS011;48391;49.184;2.418;2022-08-16T16:15:45;5.45;;;2.85;;
62353;SDS011;48391;49.184;2.418;2022-08-16T16:18:11;2.95;;;2.40;;
62353;SDS011;48391;49.184;2.418;2022-08-16T16:20:44;4.30;;;3.38;;
62353;SDS011;48391;49.184;2.418;2022-08-16T16:23:11;9.20;;;3.58;;
62353;SDS011;48391;49.184;2.418;2022-08-16T16:25:39;4.43;;;2.88;;
62353;SDS011;48391;49.184;2.418;2022-08-16T16:28:07;7.28;;;4.05;;
62353;SDS011;48391;49.184;2.418;2022-08-16T16:30:33;8.27;;;3.20;;
62353;SDS011;48391;49.184;2.418;2022-08-16T16:32:59;5.35;;;3.22;;
62353;SDS011;48391;49.184;2.418;2022-08-16T16:35:26;7.57;;;2.95;;
62353;SDS011;48391;49.184;2.418;2022-08-16T16:37:53;3.08;;;2.80;;
62353;SDS011;48391;49.184;2.418;2022-08-16T16:40:23;6.50;;;3.23;;
62353;SDS011;48391;49.184;2.418;2022-08-16T16:42:49;6.45;;;3.42;;
62353;SDS011;48391;49.184;2.418;2022-08-16T16:45:16;6.05;;;3.83;;
62353;SDS011;48391;49.184;2.418;2022-08-16T16:47:42;6.53;;;4.93;;
62353;SDS011;48391;49.184;2.418;2022-08-16T16:50:09;17.92;;;4.60;;
62353;SDS011;48391;49.184;2.418;2022-08-16T16:52:36;8.25;;;4.97;;
62353;SDS011;48391;49.184;2.418;2022-08-16T16:55:05;12.48;;;5.97;;
62353;SDS011;48391;49.184;2.418;2022-08-16T16:57:33;7.93;;;5.57;;
62353;SDS011;48391;49.184;2.418;2022-08-16T17:00:19;11.57;;;5.40;;
62353;SDS011;48391;49.184;2.418;2022-08-16T17:02:45;7.03;;;5.55;;
62353;SDS011;48391;49.184;2.418;2022-08-16T17:05:12;6.80;;;5.82;;
62353;SDS011;48391;49.184;2.418;2022-08-16T17:07:38;5.80;;;4.93;;
62353;SDS011;48391;49.184;2.418;2022-08-16T17:10:04;8.15;;;5.13;;
62353;SDS011;48391;49.184;2.418;2022-08-16T17:12:30;5.78;;;4.70;;
62353;SDS011;48391;49.184;2.418;2022-08-16T17:14:56;7.00;;;4.88;;
62353;SDS011;48391;49.184;2.418;2022-08-16T17:17:22;8.85;;;6.38;;
62353;SDS011;48391;49.184;2.418;2022-08-16T17:19:48;7.45;;;5.47;;
62353;SDS011;48391;49.184;2.418;2022-08-16T17:22:16;10.15;;;6.00;;
62353;SDS011;48391;49.184;2.418;2022-08-16T17:24:44;6.75;;;5.38;;
62353;SDS011;48391;49.184;2.418;2022-08-16T17:27:11;6.35;;;5.63;;
62353;SDS011;48391;49.184;2.418;2022-08-16T17:29:39;8.35;;;5.60;;
62353;SDS011;48391;49.184;2.418;2022-08-16T17:32:07;5.53;;;5.00;;
62353;SDS011;48391;49.184;2.418;2022-08-16T17:34:35;7.22;;;5.07;;
62353;SDS011;48391;49.184;2.418;2022-08-16T17:37:01;6.03;;;4.85;;
62353;SDS011;48391;49.184;2.418;2022-08-16T17:39:29;6.68;;;5.13;;
62353;SDS011;48391;49.184;2.418;2022-08-16T17:41:55;6.75;;;4.60;;
62353;SDS011;48391;49.184;2.418;2022-08-16T17:44:21;4.95;;;4.40;;
62353;SDS011;48391;49.184;2.418;2022-08-16T17:46:47;8.80;;;4.80;;
62353;SDS011;48391;49.184;2.418;2022-08-16T17:49:13;6.25;;;4.45;;
62353;SDS011;48391;49.184;2.418;2022-08-16T17:51:39;6.68;;;4.80;;
62353;SDS011;48391;49.184;2.418;2022-08-16T17:54:05;5.93;;;4.93;;
62353;SDS011;48391;49.184;2.418;2022-08-16T17:56:31;5.40;;;4.90;;
62353;SDS011;48391;49.184;2.418;2022-08-16T17:58:57;8.55;;;5.00;;
62353;SDS011;48391;49.184;2.418;2022-08-16T18:01:24;4.90;;;4.22;;
62353;SDS011;48391;49.184;2.418;2022-08-16T18:03:51;6.95;;;4.97;;
62353;SDS011;48391;49.184;2.418;2022-08-16T18:06:17;5.03;;;4.50;;
62353;SDS011;48391;49.184;2.418;2022-08-16T18:08:43;5.47;;;4.65;;
62353;SDS011;48391;49.184;2.418;2022-08-16T18:11:11;11.68;;;5.90;;
62353;SDS011;48391;49.184;2.418;2022-08-16T18:13:42;9.52;;;5.40;;
62353;SDS011;48391;49.184;2.418;2022-08-16T18:16:08;8.70;;;4.78;;
62353;SDS011;48391;49.184;2.418;2022-08-16T18:18:34;5.22;;;4.40;;
62353;SDS011;48391;49.184;2.418;2022-08-16T18:21:00;6.38;;;4.20;;
62353;SDS011;48391;49.184;2.418;2022-08-16T18:23:44;9.40;;;4.22;;
62353;SDS011;48391;49.184;2.418;2022-08-16T18:26:10;6.60;;;4.20;;
62353;SDS011;48391;49.184;2.418;2022-08-16T18:28:36;5.68;;;3.75;;
62353;SDS011;48391;49.184;2.418;2022-08-16T18:31:03;3.92;;;3.55;;
62353;SDS011;48391;49.184;2.418;2022-08-16T18:33:29;5.55;;;4.25;;
62353;SDS011;48391;49.184;2.418;2022-08-16T18:35:55;5.10;;;4.47;;
62353;SDS011;48391;49.184;2.418;2022-08-16T18:38:21;5.32;;;3.42;;
62353;SDS011;48391;49.184;2.418;2022-08-16T18:40:47;3.45;;;3.05;;
62353;SDS011;48391;49.184;2.418;2022-08-16T18:43:15;4.35;;;3.90;;
62353;SDS011;48391;49.184;2.418;2022-08-16T18:45:43;5.13;;;3.58;;
62353;SDS011;48391;49.184;2.418;2022-08-16T18:48:09;4.93;;;3.70;;
62353;SDS011;48391;49.184;2.418;2022-08-16T18:50:36;5.82;;;4.30;;
62353;SDS011;48391;49.184;2.418;2022-08-16T18:53:04;5.20;;;3.95;;
62353;SDS011;48391;49.184;2.418;2022-08-16T18:55:31;5.28;;;4.40;;
62353;SDS011;48391;49.184;2.418;2022-08-16T18:57:58;4.43;;;4.03;;
62353;SDS011;48391;49.184;2.418;2022-08-16T19:00:25;4.25;;;3.92;;
62353;SDS011;48391;49.184;2.418;2022-08-16T19:02:59;5.85;;;4.35;;
62353;SDS011;48391;49.184;2.418;2022-08-16T19:05:26;11.18;;;4.00;;
62353;SDS011;48391;49.184;2.418;2022-08-16T19:07:53;8.80;;;4.57;;
62353;SDS011;48391;49.184;2.418;2022-08-16T19:10:20;4.22;;;3.92;;
62353;SDS011;48391;49.184;2.418;2022-08-16T19:12:46;5.57;;;4.13;;
62353;SDS011;48391;49.184;2.418;2022-08-16T19:15:17;4.80;;;4.30;;
62353;SDS011;48391;49.184;2.418;2022-08-16T19:17:45;4.78;;;4.38;;
62353;SDS011;48391;49.184;2.418;2022-08-16T19:20:12;4.10;;;3.80;;
62353;SDS011;48391;49.184;2.418;2022-08-16T19:22:39;7.72;;;5.80;;
62353;SDS011;48391;49.184;2.418;2022-08-16T19:25:06;7.93;;;4.60;;
62353;SDS011;48391;49.184;2.418;2022-08-16T19:27:32;5.65;;;5.15;;
62353;SDS011;48391;49.184;2.418;2022-08-16T19:29:58;7.85;;;6.38;;
62353;SDS011;48391;49.184;2.418;2022-08-16T19:32:26;8.32;;;6.50;;
62353;SDS011;48391;49.184;2.418;2022-08-16T19:34:55;12.15;;;7.50;;
62353;SDS011;48391;49.184;2.418;2022-08-16T19:37:22;6.57;;;5.97;;
62353;SDS011;48391;49.184;2.418;2022-08-16T19:39:48;10.18;;;6.45;;
62353;SDS011;48391;49.184;2.418;2022-08-16T19:42:16;8.27;;;6.70;;
62353;SDS011;48391;49.184;2.418;2022-08-16T19:44:43;6.63;;;5.93;;
62353;SDS011;48391;49.184;2.418;2022-08-16T19:47:09;7.60;;;6.80;;
62353;SDS011;48391;49.184;2.418;2022-08-16T19:49:35;8.70;;;6.50;;
62353;SDS011;48391;49.184;2.418;2022-08-16T19:52:21;7.97;;;7.10;;
62353;SDS011;48391;49.184;2.418;2022-08-16T19:54:48;6.82;;;6.22;;
62353;SDS011;48391;49.184;2.418;2022-08-16T19:57:16;7.13;;;6.07;;